sensor_id;sensor_type;location;lat;lon;timestamp;temperature;humidity
25342;DHT22;13298;48.792;9.154;2023-10-09T00:01:17;14.70;99.90
25342;DHT22;13298;48.792;9.154;2023-10-09T00:03:44;14.70;99.90
25342;DHT22;13298;48.792;9.154;2023-10-09T00:06:11;14.60;99.90
25342;DHT22;13298;48.792;9.154;2023-10-09T00:08:39;14.60;99.90
25342;DHT22;13298;48.792;9.154;2023-10-09T00:11:10;14.60;99.90
25342;DHT22;13298;48.792;9.154;2023-10-09T00:13:43;14.60;99.90
25342;DHT22;13298;48.792;9.154;2023-10-09T00:16:17;14.60;99.90
25342;DHT22;13298;48.792;9.154;2023-10-09T00:19:10;14.60;99.90
25342;DHT22;13298;48.792;9.154;2023-10-09T00:21:46;14.60;99.90
25342;DHT22;13298;48.792;9.154;2023-10-09T00:24:13;14.50;99.90
25342;DHT22;13298;48.792;9.154;2023-10-09T00:26:45;14.50;99.90
25342;DHT22;13298;48.792;9.154;2023-10-09T00:29:15;14.50;99.90
25342;DHT22;13298;48.792;9.154;2023-10-09T00:31:56;14.50;99.90
25342;DHT22;13298;48.792;9.154;2023-10-09T00:34:41;14.40;99.90
25342;DHT22;13298;48.792;9.154;2023-10-09T00:37:10;14.40;99.90
25342;DHT22;13298;48.792;9.154;2023-10-09T00:39:44;14.40;99.90
25342;DHT22;13298;48.792;9.154;2023-10-09T00:42:13;14.30;99.90
25342;DHT22;13298;48.792;9.154;2023-10-09T00:44:40;14.30;99.90
25342;DHT22;13298;48.792;9.154;2023-10-09T00:47:11;14.30;99.90
25342;DHT22;13298;48.792;9.154;2023-10-09T00:49:52;14.30;99.90
25342;DHT22;13298;48.792;9.154;2023-10-09T00:52:31;14.30;99.90
25342;DHT22;13298;48.792;9.154;2023-10-09T00:55:15;14.30;99.90
25342;DHT22;13298;48.792;9.154;2023-10-09T00:57:50;14.30;99.90
25342;DHT22;13298;48.792;9.154;2023-10-09T01:00:17;14.30;99.90
25342;DHT22;13298;48.792;9.154;2023-10-09T01:03:01;14.30;99.90
25342;DHT22;13298;48.792;9.154;2023-10-09T01:05:52;14.30;99.90
25342;DHT22;13298;48.792;9.154;2023-10-09T01:08:41;14.30;99.90
25342;DHT22;13298;48.792;9.154;2023-10-09T01:11:13;14.30;99.90
25342;DHT22;13298;48.792;9.154;2023-10-09T01:13:56;14.30;99.90
25342;DHT22;13298;48.792;9.154;2023-10-09T01:16:33;14.40;99.90
25342;DHT22;13298;48.792;9.154;2023-10-09T01:18:59;14.40;99.90
25342;DHT22;13298;48.792;9.154;2023-10-09T01:21:26;14.40;99.90
25342;DHT22;13298;48.792;9.154;2023-10-09T01:23:55;14.50;99.90
25342;DHT22;13298;48.792;9.154;2023-10-09T01:26:37;14.50;99.90
25342;DHT22;13298;48.792;9.154;2023-10-09T01:29:20;14.50;99.90
25342;DHT22;13298;48.792;9.154;2023-10-09T01:31:47;14.50;99.90
25342;DHT22;13298;48.792;9.154;2023-10-09T01:34:20;14.60;99.90
25342;DHT22;13298;48.792;9.154;2023-10-09T01:36:51;14.60;99.90
25342;DHT22;13298;48.792;9.154;2023-10-09T01:39:20;14.60;99.90
25342;DHT22;13298;48.792;9.154;2023-10-09T01:41:50;14.70;99.90
25342;DHT22;13298;48.792;9.154;2023-10-09T01:44:23;14.70;99.90
25342;DHT22;13298;48.792;9.154;2023-10-09T01:46:52;14.70;99.90
25342;DHT22;13298;48.792;9.154;2023-10-09T01:49:20;14.80;99.90
25342;DHT22;13298;48.792;9.154;2023-10-09T01:51:56;14.80;99.90
25342;DHT22;13298;48.792;9.154;2023-10-09T01:54:26;14.80;99.90
25342;DHT22;13298;48.792;9.154;2023-10-09T01:57:09;14.90;99.90
25342;DHT22;13298;48.792;9.154;2023-10-09T01:59:41;14.90;99.90
25342;DHT22;13298;48.792;9.154;2023-10-09T02:02:16;14.80;99.90
25342;DHT22;13298;48.792;9.154;2023-10-09T02:07:19;14.90;99.90
25342;DHT22;13298;48.792;9.154;2023-10-09T02:09:54;14.90;99.90
25342;DHT22;13298;48.792;9.154;2023-10-09T02:12:20;14.90;99.90
25342;DHT22;13298;48.792;9.154;2023-10-09T02:14:47;14.90;99.90
25342;DHT22;13298;48.792;9.154;2023-10-09T02:17:13;14.90;99.90
25342;DHT22;13298;48.792;9.154;2023-10-09T02:19:45;14.90;99.90
25342;DHT22;13298;48.792;9.154;2023-10-09T02:22:15;15.00;99.90
25342;DHT22;13298;48.792;9.154;2023-10-09T02:24:42;15.00;99.90
25342;DHT22;13298;48.792;9.154;2023-10-09T02:27:29;15.00;99.90
25342;DHT22;13298;48.792;9.154;2023-10-09T02:30:19;15.00;99.90
25342;DHT22;13298;48.792;9.154;2023-10-09T02:32:53;15.00;99.90
25342;DHT22;13298;48.792;9.154;2023-10-09T02:35:24;15.00;99.90
25342;DHT22;13298;48.792;9.154;2023-10-09T02:38:08;15.00;99.90
25342;DHT22;13298;48.792;9.154;2023-10-09T02:40:36;15.00;99.90
25342;DHT22;13298;48.792;9.154;2023-10-09T02:43:31;15.00;99.90
25342;DHT22;13298;48.792;9.154;2023-10-09T02:46:06;15.10;99.90
25342;DHT22;13298;48.792;9.154;2023-10-09T02:48:48;15.00;99.90
25342;DHT22;13298;48.792;9.154;2023-10-09T02:51:24;15.00;99.90
25342;DHT22;13298;48.792;9.154;2023-10-09T02:53:57;15.00;99.90
25342;DHT22;13298;48.792;9.154;2023-10-09T02:56:27;15.00;99.90
25342;DHT22;13298;48.792;9.154;2023-10-09T02:59:04;15.00;99.90
25342;DHT22;13298;48.792;9.154;2023-10-09T03:01:37;14.90;99.90
25342;DHT22;13298;48.792;9.154;2023-10-09T03:04:04;14.90;99.90
25342;DHT22;13298;48.792;9.154;2023-10-09T03:06:32;14.90;99.90
25342;DHT22;13298;48.792;9.154;2023-10-09T03:08:59;14.90;99.90
25342;DHT22;13298;48.792;9.154;2023-10-09T03:11:25;14.90;99.90
25342;DHT22;13298;48.792;9.154;2023-10-09T03:13:57;14.90;99.90
25342;DHT22;13298;48.792;9.154;2023-10-09T03:16:23;14.90;99.90
25342;DHT22;13298;48.792;9.154;2023-10-09T03:18:50;14.90;99.90
25342;DHT22;13298;48.792;9.154;2023-10-09T03:21:18;14.90;99.90
25342;DHT22;13298;48.792;9.154;2023-10-09T03:23:48;14.90;99.90
25342;DHT22;13298;48.792;9.154;2023-10-09T03:26:18;14.90;99.90
25342;DHT22;13298;48.792;9.154;2023-10-09T03:28:48;14.90;99.90
25342;DHT22;13298;48.792;9.154;2023-10-09T03:31:14;14.90;99.90
25342;DHT22;13298;48.792;9.154;2023-10-09T03:33:40;14.90;99.90
25342;DHT22;13298;48.792;9.154;2023-10-09T03:36:07;14.90;99.90
25342;DHT22;13298;48.792;9.154;2023-10-09T03:38:38;14.90;99.90
25342;DHT22;13298;48.792;9.154;2023-10-09T03:41:05;14.90;99.90
25342;DHT22;13298;48.792;9.154;2023-10-09T03:43:35;14.90;99.90
25342;DHT22;13298;48.792;9.154;2023-10-09T03:46:08;14.90;99.90
25342;DHT22;13298;48.792;9.154;2023-10-09T03:48:54;14.90;99.90
25342;DHT22;13298;48.792;9.154;2023-10-09T03:51:22;15.00;99.90
25342;DHT22;13298;48.792;9.154;2023-10-09T03:53:49;15.00;99.90
25342;DHT22;13298;48.792;9.154;2023-10-09T03:56:16;15.00;99.90
25342;DHT22;13298;48.792;9.154;2023-10-09T03:58:44;15.00;99.90
25342;DHT22;13298;48.792;9.154;2023-10-09T04:03:50;15.00;99.90
25342;DHT22;13298;48.792;9.154;2023-10-09T04:06:26;14.90;99.90
25342;DHT22;13298;48.792;9.154;2023-10-09T04:09:06;14.90;99.90
25342;DHT22;13298;48.792;9.154;2023-10-09T04:11:51;14.90;99.90
25342;DHT22;13298;48.792;9.154;2023-10-09T04:14:38;14.80;99.90
25342;DHT22;13298;48.792;9.154;2023-10-09T04:17:19;14.70;99.90
25342;DHT22;13298;48.792;9.154;2023-10-09T04:20:01;14.70;99.90
25342;DHT22;13298;48.792;9.154;2023-10-09T04:22:43;14.60;99.90
25342;DHT22;13298;48.792;9.154;2023-10-09T04:25:18;14.60;99.90
25342;DHT22;13298;48.792;9.154;2023-10-09T04:27:54;14.60;99.90
25342;DHT22;13298;48.792;9.154;2023-10-09T04:30:40;14.60;99.90
25342;DHT22;13298;48.792;9.154;2023-10-09T04:33:14;14.60;99.90
25342;DHT22;13298;48.792;9.154;2023-10-09T04:36:02;14.60;99.90
25342;DHT22;13298;48.792;9.154;2023-10-09T04:38:57;14.60;99.90
25342;DHT22;13298;48.792;9.154;2023-10-09T04:41:30;14.60;99.90
25342;DHT22;13298;48.792;9.154;2023-10-09T04:44:17;14.60;99.90
25342;DHT22;13298;48.792;9.154;2023-10-09T04:47:01;14.60;99.90
25342;DHT22;13298;48.792;9.154;2023-10-09T04:49:38;14.60;99.90
25342;DHT22;13298;48.792;9.154;2023-10-09T04:52:17;14.60;99.90
25342;DHT22;13298;48.792;9.154;2023-10-09T04:54:56;14.50;99.90
25342;DHT22;13298;48.792;9.154;2023-10-09T04:57:38;14.60;99.90
25342;DHT22;13298;48.792;9.154;2023-10-09T05:00:17;14.60;99.90
25342;DHT22;13298;48.792;9.154;2023-10-09T05:02:57;14.60;99.90
25342;DHT22;13298;48.792;9.154;2023-10-09T05:05:29;14.60;99.90
25342;DHT22;13298;48.792;9.154;2023-10-09T05:08:04;14.60;99.90
25342;DHT22;13298;48.792;9.154;2023-10-09T05:10:48;14.50;99.90
25342;DHT22;13298;48.792;9.154;2023-10-09T05:13:36;14.50;99.90
25342;DHT22;13298;48.792;9.154;2023-10-09T05:16:15;14.50;99.90
25342;DHT22;13298;48.792;9.154;2023-10-09T05:18:46;14.50;99.90
25342;DHT22;13298;48.792;9.154;2023-10-09T05:21:36;14.50;99.90
25342;DHT22;13298;48.792;9.154;2023-10-09T05:24:10;14.50;99.90
25342;DHT22;13298;48.792;9.154;2023-10-09T05:26:44;14.50;99.90
25342;DHT22;13298;48.792;9.154;2023-10-09T05:29:24;14.60;99.90
25342;DHT22;13298;48.792;9.154;2023-10-09T05:32:46;14.60;99.90
25342;DHT22;13298;48.792;9.154;2023-10-09T05:35:14;14.70;99.90
25342;DHT22;13298;48.792;9.154;2023-10-09T05:37:45;14.80;99.90
25342;DHT22;13298;48.792;9.154;2023-10-09T05:40:12;14.90;99.90
25342;DHT22;13298;48.792;9.154;2023-10-09T05:42:41;15.00;99.90
25342;DHT22;13298;48.792;9.154;2023-10-09T05:45:11;15.00;99.90
25342;DHT22;13298;48.792;9.154;2023-10-09T05:47:57;15.10;99.90
25342;DHT22;13298;48.792;9.154;2023-10-09T05:50:42;15.20;99.90
25342;DHT22;13298;48.792;9.154;2023-10-09T05:53:35;15.30;99.90
25342;DHT22;13298;48.792;9.154;2023-10-09T05:56:11;15.40;99.90
25342;DHT22;13298;48.792;9.154;2023-10-09T05:58:56;15.40;99.90
25342;DHT22;13298;48.792;9.154;2023-10-09T06:01:40;15.50;99.90
25342;DHT22;13298;48.792;9.154;2023-10-09T06:04:26;15.60;99.90
25342;DHT22;13298;48.792;9.154;2023-10-09T06:07:10;15.60;99.90
25342;DHT22;13298;48.792;9.154;2023-10-09T06:09:39;15.80;99.90
25342;DHT22;13298;48.792;9.154;2023-10-09T06:12:23;15.90;99.90
25342;DHT22;13298;48.792;9.154;2023-10-09T06:14:57;16.00;99.90
25342;DHT22;13298;48.792;9.154;2023-10-09T06:17:29;16.10;99.90
25342;DHT22;13298;48.792;9.154;2023-10-09T06:20:09;16.30;99.90
25342;DHT22;13298;48.792;9.154;2023-10-09T06:22:55;16.40;99.90
25342;DHT22;13298;48.792;9.154;2023-10-09T06:25:23;16.50;99.90
25342;DHT22;13298;48.792;9.154;2023-10-09T06:27:58;16.60;99.90
25342;DHT22;13298;48.792;9.154;2023-10-09T06:30:24;16.70;99.90
25342;DHT22;13298;48.792;9.154;2023-10-09T06:32:50;16.80;99.90
25342;DHT22;13298;48.792;9.154;2023-10-09T06:35:23;16.90;99.90
25342;DHT22;13298;48.792;9.154;2023-10-09T06:37:59;17.00;99.90
25342;DHT22;13298;48.792;9.154;2023-10-09T06:40:28;17.00;99.90
25342;DHT22;13298;48.792;9.154;2023-10-09T06:43:12;17.10;99.90
25342;DHT22;13298;48.792;9.154;2023-10-09T06:45:57;17.10;99.90
25342;DHT22;13298;48.792;9.154;2023-10-09T06:48:26;17.10;99.90
25342;DHT22;13298;48.792;9.154;2023-10-09T06:51:09;17.10;99.90
25342;DHT22;13298;48.792;9.154;2023-10-09T06:53:41;17.10;99.90
25342;DHT22;13298;48.792;9.154;2023-10-09T06:59:09;17.10;99.90
25342;DHT22;13298;48.792;9.154;2023-10-09T07:01:46;17.10;99.90
25342;DHT22;13298;48.792;9.154;2023-10-09T07:04:33;17.20;99.90
25342;DHT22;13298;48.792;9.154;2023-10-09T07:07:02;17.20;99.90
25342;DHT22;13298;48.792;9.154;2023-10-09T07:09:33;17.30;99.90
25342;DHT22;13298;48.792;9.154;2023-10-09T07:12:09;17.30;99.90
25342;DHT22;13298;48.792;9.154;2023-10-09T07:14:51;17.40;99.90
25342;DHT22;13298;48.792;9.154;2023-10-09T07:17:32;17.40;99.90
25342;DHT22;13298;48.792;9.154;2023-10-09T07:19:57;17.40;99.90
25342;DHT22;13298;48.792;9.154;2023-10-09T07:22:35;17.50;99.90
25342;DHT22;13298;48.792;9.154;2023-10-09T07:25:05;17.60;99.90
25342;DHT22;13298;48.792;9.154;2023-10-09T07:27:53;17.70;99.90
25342;DHT22;13298;48.792;9.154;2023-10-09T07:30:21;17.80;99.50
25342;DHT22;13298;48.792;9.154;2023-10-09T07:33:07;17.80;99.10
25342;DHT22;13298;48.792;9.154;2023-10-09T07:35:44;17.90;99.40
25342;DHT22;13298;48.792;9.154;2023-10-09T07:38:21;18.00;99.50
25342;DHT22;13298;48.792;9.154;2023-10-09T07:40:50;18.10;99.60
25342;DHT22;13298;48.792;9.154;2023-10-09T07:43:33;18.20;99.50
25342;DHT22;13298;48.792;9.154;2023-10-09T07:46:10;18.20;99.60
25342;DHT22;13298;48.792;9.154;2023-10-09T07:49:02;18.30;99.70
25342;DHT22;13298;48.792;9.154;2023-10-09T07:51:38;18.30;99.90
25342;DHT22;13298;48.792;9.154;2023-10-09T07:54:09;18.40;99.90
25342;DHT22;13298;48.792;9.154;2023-10-09T07:56:39;18.50;99.90
25342;DHT22;13298;48.792;9.154;2023-10-09T07:59:12;18.60;98.90
25342;DHT22;13298;48.792;9.154;2023-10-09T08:01:44;18.70;99.10
25342;DHT22;13298;48.792;9.154;2023-10-09T08:04:28;18.80;99.60
25342;DHT22;13298;48.792;9.154;2023-10-09T08:07:10;18.90;99.60
25342;DHT22;13298;48.792;9.154;2023-10-09T08:09:51;19.00;99.00
25342;DHT22;13298;48.792;9.154;2023-10-09T08:12:36;19.20;98.90
25342;DHT22;13298;48.792;9.154;2023-10-09T08:15:23;19.30;99.50
25342;DHT22;13298;48.792;9.154;2023-10-09T08:18:09;19.30;99.60
25342;DHT22;13298;48.792;9.154;2023-10-09T08:20:43;19.40;99.10
25342;DHT22;13298;48.792;9.154;2023-10-09T08:23:28;19.50;99.20
25342;DHT22;13298;48.792;9.154;2023-10-09T08:26:14;19.60;99.50
25342;DHT22;13298;48.792;9.154;2023-10-09T08:28:43;19.70;98.30
25342;DHT22;13298;48.792;9.154;2023-10-09T08:31:12;19.80;98.00
25342;DHT22;13298;48.792;9.154;2023-10-09T08:34:02;19.90;97.60
25342;DHT22;13298;48.792;9.154;2023-10-09T08:36:29;20.00;97.70
25342;DHT22;13298;48.792;9.154;2023-10-09T08:39:02;20.10;97.70
25342;DHT22;13298;48.792;9.154;2023-10-09T08:41:40;20.10;96.90
25342;DHT22;13298;48.792;9.154;2023-10-09T08:44:07;20.10;96.60
25342;DHT22;13298;48.792;9.154;2023-10-09T08:46:33;20.20;97.20
25342;DHT22;13298;48.792;9.154;2023-10-09T08:48:59;20.30;96.40
25342;DHT22;13298;48.792;9.154;2023-10-09T08:51:26;20.30;95.80
25342;DHT22;13298;48.792;9.154;2023-10-09T08:53:54;20.30;96.10
25342;DHT22;13298;48.792;9.154;2023-10-09T08:56:21;20.40;96.00
25342;DHT22;13298;48.792;9.154;2023-10-09T08:58:49;20.40;95.40
25342;DHT22;13298;48.792;9.154;2023-10-09T09:01:21;20.50;95.50
25342;DHT22;13298;48.792;9.154;2023-10-09T09:03:48;20.60;95.80
25342;DHT22;13298;48.792;9.154;2023-10-09T09:06:17;20.70;95.60
25342;DHT22;13298;48.792;9.154;2023-10-09T09:08:45;20.80;96.60
25342;DHT22;13298;48.792;9.154;2023-10-09T09:11:14;20.90;95.70
25342;DHT22;13298;48.792;9.154;2023-10-09T09:13:48;20.90;95.80
25342;DHT22;13298;48.792;9.154;2023-10-09T09:16:33;21.00;95.80
25342;DHT22;13298;48.792;9.154;2023-10-09T09:19:05;21.00;97.70
25342;DHT22;13298;48.792;9.154;2023-10-09T09:24:07;21.20;95.40
25342;DHT22;13298;48.792;9.154;2023-10-09T09:26:54;21.20;95.20
25342;DHT22;13298;48.792;9.154;2023-10-09T09:29:39;21.40;95.40
25342;DHT22;13298;48.792;9.154;2023-10-09T09:32:10;21.50;94.00
25342;DHT22;13298;48.792;9.154;2023-10-09T09:34:52;21.60;93.70
25342;DHT22;13298;48.792;9.154;2023-10-09T09:37:28;21.70;94.80
25342;DHT22;13298;48.792;9.154;2023-10-09T09:40:02;21.70;94.20
25342;DHT22;13298;48.792;9.154;2023-10-09T09:42:42;21.80;94.80
25342;DHT22;13298;48.792;9.154;2023-10-09T09:45:14;21.80;94.50
25342;DHT22;13298;48.792;9.154;2023-10-09T09:47:43;21.90;95.50
25342;DHT22;13298;48.792;9.154;2023-10-09T09:50:17;22.00;96.90
25342;DHT22;13298;48.792;9.154;2023-10-09T09:52:54;22.00;96.20
25342;DHT22;13298;48.792;9.154;2023-10-09T09:55:25;22.00;96.40
25342;DHT22;13298;48.792;9.154;2023-10-09T09:57:56;22.00;95.70
25342;DHT22;13298;48.792;9.154;2023-10-09T10:00:31;22.10;95.20
25342;DHT22;13298;48.792;9.154;2023-10-09T10:03:24;22.20;94.60
25342;DHT22;13298;48.792;9.154;2023-10-09T10:05:54;22.20;94.30
25342;DHT22;13298;48.792;9.154;2023-10-09T10:08:22;22.30;94.70
25342;DHT22;13298;48.792;9.154;2023-10-09T10:10:56;22.40;95.10
25342;DHT22;13298;48.792;9.154;2023-10-09T10:19:02;22.30;93.80
25342;DHT22;13298;48.792;9.154;2023-10-09T10:21:33;22.20;92.60
25342;DHT22;13298;48.792;9.154;2023-10-09T10:35:21;22.60;94.00
25342;DHT22;13298;48.792;9.154;2023-10-09T10:38:26;22.60;93.90
25342;DHT22;13298;48.792;9.154;2023-10-09T10:41:14;22.60;93.40
25342;DHT22;13298;48.792;9.154;2023-10-09T10:43:48;22.60;93.90
25342;DHT22;13298;48.792;9.154;2023-10-09T10:46:21;22.60;92.60
25342;DHT22;13298;48.792;9.154;2023-10-09T10:49:08;22.60;92.70
25342;DHT22;13298;48.792;9.154;2023-10-09T10:51:37;22.50;92.30
25342;DHT22;13298;48.792;9.154;2023-10-09T10:54:04;22.50;91.90
25342;DHT22;13298;48.792;9.154;2023-10-09T10:56:53;22.50;93.00
25342;DHT22;13298;48.792;9.154;2023-10-09T10:59:22;22.50;90.50
25342;DHT22;13298;48.792;9.154;2023-10-09T11:01:50;22.50;91.50
25342;DHT22;13298;48.792;9.154;2023-10-09T11:04:25;22.50;91.60
25342;DHT22;13298;48.792;9.154;2023-10-09T11:06:58;22.40;88.20
25342;DHT22;13298;48.792;9.154;2023-10-09T11:09:54;22.50;88.50
25342;DHT22;13298;48.792;9.154;2023-10-09T11:12:31;22.60;90.70
25342;DHT22;13298;48.792;9.154;2023-10-09T11:15:34;22.70;90.30
25342;DHT22;13298;48.792;9.154;2023-10-09T11:18:11;22.80;88.00
25342;DHT22;13298;48.792;9.154;2023-10-09T11:20:55;22.90;91.20
25342;DHT22;13298;48.792;9.154;2023-10-09T11:23:44;23.10;89.10
25342;DHT22;13298;48.792;9.154;2023-10-09T11:26:16;23.20;91.20
25342;DHT22;13298;48.792;9.154;2023-10-09T11:34:27;22.90;90.30
25342;DHT22;13298;48.792;9.154;2023-10-09T11:37:14;22.70;90.50
25342;DHT22;13298;48.792;9.154;2023-10-09T11:39:55;22.50;90.00
25342;DHT22;13298;48.792;9.154;2023-10-09T11:42:23;22.40;81.40
25342;DHT22;13298;48.792;9.154;2023-10-09T11:45:05;22.30;84.30
25342;DHT22;13298;48.792;9.154;2023-10-09T11:47:49;22.30;82.50
25342;DHT22;13298;48.792;9.154;2023-10-09T11:53:42;22.30;74.70
25342;DHT22;13298;48.792;9.154;2023-10-09T11:56:11;22.30;76.70
25342;DHT22;13298;48.792;9.154;2023-10-09T11:58:42;22.30;79.10
25342;DHT22;13298;48.792;9.154;2023-10-09T12:01:12;22.40;78.00
25342;DHT22;13298;48.792;9.154;2023-10-09T12:03:46;22.50;75.70
25342;DHT22;13298;48.792;9.154;2023-10-09T12:06:15;22.60;73.90
25342;DHT22;13298;48.792;9.154;2023-10-09T12:08:44;22.60;75.30
25342;DHT22;13298;48.792;9.154;2023-10-09T12:11:14;22.70;70.30
25342;DHT22;13298;48.792;9.154;2023-10-09T12:13:48;22.70;69.70
25342;DHT22;13298;48.792;9.154;2023-10-09T12:16:14;22.90;71.50
25342;DHT22;13298;48.792;9.154;2023-10-09T12:18:41;23.10;72.70
25342;DHT22;13298;48.792;9.154;2023-10-09T12:21:08;23.30;71.20
25342;DHT22;13298;48.792;9.154;2023-10-09T12:23:41;23.50;70.50
25342;DHT22;13298;48.792;9.154;2023-10-09T12:26:09;23.60;71.20
25342;DHT22;13298;48.792;9.154;2023-10-09T12:28:43;23.70;71.80
25342;DHT22;13298;48.792;9.154;2023-10-09T12:31:15;23.80;73.30
25342;DHT22;13298;48.792;9.154;2023-10-09T12:33:41;23.80;74.20
25342;DHT22;13298;48.792;9.154;2023-10-09T12:36:13;23.80;74.20
25342;DHT22;13298;48.792;9.154;2023-10-09T12:38:46;23.70;76.30
25342;DHT22;13298;48.792;9.154;2023-10-09T12:41:19;23.70;75.50
25342;DHT22;13298;48.792;9.154;2023-10-09T12:43:46;23.80;64.80
25342;DHT22;13298;48.792;9.154;2023-10-09T12:46:12;23.90;64.60
25342;DHT22;13298;48.792;9.154;2023-10-09T12:48:44;24.00;70.10
25342;DHT22;13298;48.792;9.154;2023-10-09T12:51:12;24.10;67.40
25342;DHT22;13298;48.792;9.154;2023-10-09T12:53:45;24.10;64.80
25342;DHT22;13298;48.792;9.154;2023-10-09T12:56:14;24.10;67.20
25342;DHT22;13298;48.792;9.154;2023-10-09T12:58:41;24.10;69.40
25342;DHT22;13298;48.792;9.154;2023-10-09T13:01:18;23.90;70.20
25342;DHT22;13298;48.792;9.154;2023-10-09T13:03:45;23.80;71.80
25342;DHT22;13298;48.792;9.154;2023-10-09T13:06:14;23.60;72.00
25342;DHT22;13298;48.792;9.154;2023-10-09T13:08:41;23.40;65.20
25342;DHT22;13298;48.792;9.154;2023-10-09T13:11:11;23.20;68.00
25342;DHT22;13298;48.792;9.154;2023-10-09T13:13:41;23.10;68.10
25342;DHT22;13298;48.792;9.154;2023-10-09T13:16:12;22.90;69.10
25342;DHT22;13298;48.792;9.154;2023-10-09T13:18:55;22.80;68.80
25342;DHT22;13298;48.792;9.154;2023-10-09T13:21:22;22.70;68.10
25342;DHT22;13298;48.792;9.154;2023-10-09T13:23:52;22.60;67.60
25342;DHT22;13298;48.792;9.154;2023-10-09T13:26:20;22.70;63.60
25342;DHT22;13298;48.792;9.154;2023-10-09T13:28:55;22.70;65.20
25342;DHT22;13298;48.792;9.154;2023-10-09T13:31:23;22.70;61.70
25342;DHT22;13298;48.792;9.154;2023-10-09T13:33:56;22.80;61.70
25342;DHT22;13298;48.792;9.154;2023-10-09T13:36:25;22.80;64.50
25342;DHT22;13298;48.792;9.154;2023-10-09T13:39:00;22.80;59.20
25342;DHT22;13298;48.792;9.154;2023-10-09T13:41:45;22.80;61.20
25342;DHT22;13298;48.792;9.154;2023-10-09T13:44:11;22.90;60.30
25342;DHT22;13298;48.792;9.154;2023-10-09T13:46:37;22.90;58.10
25342;DHT22;13298;48.792;9.154;2023-10-09T13:49:10;23.00;56.30
25342;DHT22;13298;48.792;9.154;2023-10-09T13:51:40;23.20;54.60
25342;DHT22;13298;48.792;9.154;2023-10-09T13:54:11;23.30;56.30
25342;DHT22;13298;48.792;9.154;2023-10-09T13:56:47;23.40;56.90
25342;DHT22;13298;48.792;9.154;2023-10-09T13:59:21;23.60;58.80
25342;DHT22;13298;48.792;9.154;2023-10-09T14:01:49;23.70;55.20
25342;DHT22;13298;48.792;9.154;2023-10-09T14:04:15;23.90;54.10
25342;DHT22;13298;48.792;9.154;2023-10-09T14:06:44;24.00;55.80
25342;DHT22;13298;48.792;9.154;2023-10-09T14:09:11;24.10;55.70
25342;DHT22;13298;48.792;9.154;2023-10-09T14:11:59;24.20;54.90
25342;DHT22;13298;48.792;9.154;2023-10-09T14:14:40;24.30;56.20
25342;DHT22;13298;48.792;9.154;2023-10-09T14:17:17;24.20;56.60
25342;DHT22;13298;48.792;9.154;2023-10-09T14:19:49;24.10;56.80
25342;DHT22;13298;48.792;9.154;2023-10-09T14:22:23;24.10;54.90
25342;DHT22;13298;48.792;9.154;2023-10-09T14:24:52;23.90;55.00
25342;DHT22;13298;48.792;9.154;2023-10-09T14:27:26;23.90;56.20
25342;DHT22;13298;48.792;9.154;2023-10-09T14:29:55;23.90;54.00
25342;DHT22;13298;48.792;9.154;2023-10-09T14:32:22;23.80;56.30
25342;DHT22;13298;48.792;9.154;2023-10-09T14:34:54;23.80;55.20
25342;DHT22;13298;48.792;9.154;2023-10-09T14:37:26;23.80;55.20
25342;DHT22;13298;48.792;9.154;2023-10-09T14:39:52;23.80;52.80
25342;DHT22;13298;48.792;9.154;2023-10-09T14:42:19;23.90;53.50
25342;DHT22;13298;48.792;9.154;2023-10-09T14:44:48;23.80;54.90
25342;DHT22;13298;48.792;9.154;2023-10-09T14:47:15;23.80;55.60
25342;DHT22;13298;48.792;9.154;2023-10-09T14:49:41;23.80;55.60
25342;DHT22;13298;48.792;9.154;2023-10-09T14:52:12;23.70;55.60
25342;DHT22;13298;48.792;9.154;2023-10-09T14:54:42;23.70;56.00
25342;DHT22;13298;48.792;9.154;2023-10-09T14:57:10;23.60;59.30
25342;DHT22;13298;48.792;9.154;2023-10-09T14:59:37;23.60;57.40
25342;DHT22;13298;48.792;9.154;2023-10-09T15:02:03;23.50;56.60
25342;DHT22;13298;48.792;9.154;2023-10-09T15:04:31;23.40;56.30
25342;DHT22;13298;48.792;9.154;2023-10-09T15:06:57;23.40;57.30
25342;DHT22;13298;48.792;9.154;2023-10-09T15:09:23;23.40;58.20
25342;DHT22;13298;48.792;9.154;2023-10-09T15:11:50;23.30;58.80
25342;DHT22;13298;48.792;9.154;2023-10-09T15:14:16;23.30;59.30
25342;DHT22;13298;48.792;9.154;2023-10-09T15:16:44;23.20;60.40
25342;DHT22;13298;48.792;9.154;2023-10-09T15:19:11;23.10;60.50
25342;DHT22;13298;48.792;9.154;2023-10-09T15:21:38;23.00;60.30
25342;DHT22;13298;48.792;9.154;2023-10-09T15:24:10;22.90;61.00
25342;DHT22;13298;48.792;9.154;2023-10-09T15:26:46;22.80;61.40
25342;DHT22;13298;48.792;9.154;2023-10-09T15:31:49;22.70;62.50
25342;DHT22;13298;48.792;9.154;2023-10-09T15:34:16;22.60;62.40
25342;DHT22;13298;48.792;9.154;2023-10-09T15:36:44;22.50;63.20
25342;DHT22;13298;48.792;9.154;2023-10-09T15:39:13;22.50;64.10
25342;DHT22;13298;48.792;9.154;2023-10-09T15:41:39;22.40;64.70
25342;DHT22;13298;48.792;9.154;2023-10-09T15:44:07;22.30;64.90
25342;DHT22;13298;48.792;9.154;2023-10-09T15:46:33;22.30;66.10
25342;DHT22;13298;48.792;9.154;2023-10-09T15:49:00;22.20;66.90
25342;DHT22;13298;48.792;9.154;2023-10-09T15:51:27;22.10;66.90
25342;DHT22;13298;48.792;9.154;2023-10-09T15:53:53;22.00;70.50
25342;DHT22;13298;48.792;9.154;2023-10-09T15:56:19;21.90;71.30
25342;DHT22;13298;48.792;9.154;2023-10-09T15:58:46;21.80;71.90
25342;DHT22;13298;48.792;9.154;2023-10-09T16:01:16;21.70;72.40
25342;DHT22;13298;48.792;9.154;2023-10-09T16:03:46;21.60;72.90
25342;DHT22;13298;48.792;9.154;2023-10-09T16:06:17;21.50;75.70
25342;DHT22;13298;48.792;9.154;2023-10-09T16:08:45;21.40;76.60
25342;DHT22;13298;48.792;9.154;2023-10-09T16:11:19;21.20;77.30
25342;DHT22;13298;48.792;9.154;2023-10-09T16:13:51;21.10;79.30
25342;DHT22;13298;48.792;9.154;2023-10-09T16:16:29;21.00;80.40
25342;DHT22;13298;48.792;9.154;2023-10-09T16:18:55;20.90;78.70
25342;DHT22;13298;48.792;9.154;2023-10-09T16:21:23;20.80;76.50
25342;DHT22;13298;48.792;9.154;2023-10-09T16:23:50;20.70;75.50
25342;DHT22;13298;48.792;9.154;2023-10-09T16:26:16;20.60;75.30
25342;DHT22;13298;48.792;9.154;2023-10-09T16:28:43;20.50;75.40
25342;DHT22;13298;48.792;9.154;2023-10-09T16:31:10;20.40;75.40
25342;DHT22;13298;48.792;9.154;2023-10-09T16:33:40;20.30;76.00
25342;DHT22;13298;48.792;9.154;2023-10-09T16:36:06;20.20;76.40
25342;DHT22;13298;48.792;9.154;2023-10-09T16:38:32;20.10;77.80
25342;DHT22;13298;48.792;9.154;2023-10-09T16:41:01;20.00;77.20
25342;DHT22;13298;48.792;9.154;2023-10-09T16:43:33;19.90;79.00
25342;DHT22;13298;48.792;9.154;2023-10-09T16:46:01;19.80;80.70
25342;DHT22;13298;48.792;9.154;2023-10-09T16:48:34;19.70;81.90
25342;DHT22;13298;48.792;9.154;2023-10-09T16:51:03;19.60;82.50